首页
METAR-TAF:

METAR-TAF

机场 :

吉杰勒, 阿尔及利亚

纬度: 36-53N, 经度: 005-49E, 海拔: 2米

当前天气观测

该预报发布于28分钟前的19:00 UTC
风速3节,风向南转南东
温度 14°C
湿度 82%
气压 1012 hPa
能见度10公里或以上
少量云层高于2600英尺
散云层高于23300英尺

METAR: DAAV 301900Z 16003KT 9999 FEW026 SCT233 14/11 Q1012

时间: 20:28 (19:28 UTC)

预报

该预报发布于2小时和28分钟前的17:00 UTC
预报有效从30日的 18点(UTC)到 31日的 18点(UTC)
风速10节,风向东北
能见度10公里或以上
少量云层高于2300英尺
成为
从 30日的 19点(UTC)到 30日的 21点(UTC)
风速9节,风向南转南东
成为
从 31日的 09点(UTC)到 31日的 11点(UTC)
风速14节,风向西南
几率 30% :
短暂存在
从 31日的 13点(UTC)到 31日的 18点(UTC)
少量云层高于2000英尺, 塔状积云.

TAF: DAAV 301700Z 3018/3118 04010KT 9999 FEW023 BECMG 3019/3021 15009KT BECMG 3109/3111 22014KT PROB30 TEMPO 3113/3118 FEW020TCU

超过4000个机场的气象观测和天气预报(METAR&TAF报告)。

可查询的气象台以黄色和红色小点在地图上表示。

将鼠标移到小点上方,可查看气象台名称。

然后点击查看天气观测和预报。

如需切换地图:点击带黑十字的绿色按钮放大地图;点击带横线的绿色按钮缩小地图;或者点击绿色箭头查看邻近地区的地图。


METAR-TAF: